Archival Weather

Barra Do Garcas

Barra Do Garcas, Brazil (SBBW)

Report from: Saturday, December 2, 2023 3:00 PM -03
Current time: Wednesday, April 24, 2024 4:13 PM -03

Current weather – Weather history – Daily summaries
Weather forecast

Present weatherThunderstorm, VCSH
Temperature31.0°C (87.8°F)
Heat index37.8°C (100.0°F)
Dew point25.0°C (77.0°F)
Winds 10 kts (5.1 m/s, 11.5 mph) Northeast (40°)
Visibility6.2 mi. (10 km)
Clouds Ceiling: Broken clouds 2,000 ft. (610 m)
Few clouds with cumulonimbus 2,500 ft. (762 m)
Broken clouds 9,000 ft. (2,743 m)
Altimeter29.83 in.Hg (1010 mB)
Relative humidity71 %
Density altitude2,362 ft. (720 m)
Flight conditions Marginal Visual Meteorological Conditions
Raw dataSBBW 021800Z 04010KT 9999 TS VCSH BKN020 FEW025CB BKN090 31/25 Q1010
An error has occurred. This application may no longer respond until reloaded. Reload 🗙